Time;durP1;ratioP1;P1;durP2;ratioP2;P2;SDS_P1;SDS_P2;PMS_P1;PMS_P2;Temp;Humidity;BMP_temperature;BMP_pressure;BME280_temperature;BME280_humidity;BME280_pressure;Samples;Min_cycle;Max_cycle;Signal;HPM_P1;HPM_P2
2022/06/12 00:00:43;;;;;;;0.90;0.90;;;12.90;99.90;;;;;;5098475;28;20027;-77
2022/06/12 00:03:12;;;;;;;1.27;1.17;;;12.90;99.90;;;;;;5104531;28;20156;-77
2022/06/12 00:05:40;;;;;;;1.13;0.90;;;12.90;99.90;;;;;;5105361;28;20567;-77
2022/06/12 00:08:07;;;;;;;1.13;0.90;;;12.90;99.90;;;;;;5101910;28;20043;-77
2022/06/12 00:10:34;;;;;;;1.05;0.93;;;12.90;99.90;;;;;;5099623;28;20564;-76
2022/06/12 00:13:00;;;;;;;1.20;1.10;;;12.90;99.90;;;;;;5097084;28;20484;-77
2022/06/12 00:15:29;;;;;;;1.15;0.90;;;12.90;99.90;;;;;;5097223;28;20024;-77
2022/06/12 00:17:57;;;;;;;1.80;0.80;;;12.80;99.90;;;;;;5098338;28;20492;-77
2022/06/12 00:20:24;;;;;;;5.55;1.80;;;12.70;99.90;;;;;;5102181;28;20103;-77
2022/06/12 00:22:52;;;;;;;2.55;1.30;;;12.70;99.90;;;;;;5097475;28;20039;-77
2022/06/12 00:25:19;;;;;;;2.03;1.08;;;12.60;99.90;;;;;;5097732;28;20048;-76
2022/06/12 00:27:45;;;;;;;1.25;1.00;;;12.50;99.90;;;;;;5096843;28;20031;-77
2022/06/12 00:30:14;;;;;;;1.83;1.10;;;12.40;99.90;;;;;;5094395;28;20149;-77
2022/06/12 00:32:40;;;;;;;0.90;0.90;;;12.50;99.90;;;;;;5099293;28;20469;-77
2022/06/12 00:35:07;;;;;;;1.23;1.00;;;12.50;99.90;;;;;;5092553;28;20563;-76
2022/06/12 00:37:34;;;;;;;1.13;0.98;;;12.40;99.90;;;;;;5096177;28;21211;-77
2022/06/12 00:40:01;;;;;;;1.23;1.13;;;12.30;99.90;;;;;;5100556;28;20232;-77
2022/06/12 00:42:35;;;;;;;1.13;1.10;;;12.30;99.90;;;;;;5095210;28;20047;-77
2022/06/12 00:45:23;;;;;;;2.35;1.10;;;12.30;99.90;;;;;;5095211;28;20430;-77
2022/06/12 00:47:49;;;;;;;1.48;1.30;;;12.30;99.90;;;;;;5088574;28;20032;-77
2022/06/12 00:50:14;;;;;;;1.25;1.15;;;12.30;99.90;;;;;;5095518;28;20032;-77
2022/06/12 00:52:47;;;;;;;1.40;1.20;;;12.20;99.90;;;;;;5095544;28;20024;-76
2022/06/12 00:55:29;;;;;;;1.30;1.25;;;12.20;99.90;;;;;;5095252;28;20422;-77
2022/06/12 00:58:11;;;;;;;1.50;1.10;;;12.10;99.90;;;;;;5099699;28;20551;-77
2022/06/12 01:00:38;;;;;;;1.23;1.08;;;12.10;99.90;;;;;;5098451;28;20051;-77
2022/06/12 01:03:05;;;;;;;1.05;1.00;;;12.00;99.90;;;;;;5096079;28;20046;-76
2022/06/12 01:08:18;;;;;;;1.50;1.40;;;12.00;99.90;;;;;;5098028;28;20594;-76
2022/06/12 01:10:48;;;;;;;3.38;1.35;;;11.90;99.90;;;;;;5100721;28;20023;-77
2022/06/12 01:13:19;;;;;;;1.88;1.77;;;11.90;99.90;;;;;;5100124;28;20028;-76
2022/06/12 01:15:53;;;;;;;1.48;1.30;;;11.90;99.90;;;;;;5094224;28;20020;-77
2022/06/12 01:18:23;;;;;;;3.00;1.42;;;11.90;99.90;;;;;;5091245;28;20028;-76
2022/06/12 01:21:01;;;;;;;1.35;1.20;;;11.90;99.90;;;;;;5094250;28;20618;-77
2022/06/12 01:23:38;;;;;;;3.20;1.73;;;11.90;99.90;;;;;;5092164;28;20024;-77
2022/06/12 01:26:36;;;;;;;2.58;1.42;;;11.90;99.90;;;;;;5100464;28;20023;-77
2022/06/12 01:29:12;;;;;;;9.00;1.20;;;11.80;99.90;;;;;;5015266;28;20046;-81
2022/06/12 01:32:03;;;;;;;1.63;1.52;;;11.70;99.90;;;;;;5087383;28;20603;-76
2022/06/12 01:34:48;;;;;;;2.47;1.17;;;11.50;99.90;;;;;;5088032;28;20458;-77
2022/06/12 01:37:30;;;;;;;1.90;1.80;;;11.50;99.90;;;;;;5087082;28;20026;-77
2022/06/12 01:40:16;;;;;;;1.60;1.50;;;11.50;99.90;;;;;;5087424;28;20026;-77
2022/06/12 01:43:00;;;;;;;1.50;1.40;;;11.60;99.90;;;;;;5086929;28;20047;-77
2022/06/12 01:45:35;;;;;;;1.60;1.50;;;11.60;99.90;;;;;;5088619;28;20520;-77
2022/06/12 01:48:19;;;;;;;5.63;1.30;;;11.60;99.90;;;;;;5088165;28;20400;-77
2022/06/12 01:50:48;;;;;;;1.52;1.42;;;11.60;99.90;;;;;;5088159;28;20038;-76
2022/06/12 01:53:31;;;;;;;2.67;1.67;;;11.60;99.90;;;;;;5088774;28;20024;-77
2022/06/12 01:56:26;;;;;;;1.50;1.30;;;11.50;99.90;;;;;;5086612;28;20148;-77
2022/06/12 01:59:21;;;;;;;2.15;1.95;;;11.40;99.90;;;;;;5088798;28;20139;-77
2022/06/12 02:01:56;;;;;;;2.05;1.60;;;11.50;99.90;;;;;;5088095;28;20039;-77
2022/06/12 02:04:38;;;;;;;2.83;1.70;;;11.50;99.90;;;;;;5096328;28;20027;-76
2022/06/12 02:07:30;;;;;;;3.42;1.60;;;11.50;99.90;;;;;;5107019;28;20513;-77
2022/06/12 02:10:01;;;;;;;2.22;1.75;;;11.40;99.90;;;;;;5107520;28;20015;-77
2022/06/12 02:15:38;;;;;;;2.65;1.55;;;11.30;99.90;;;;;;5108877;28;20487;-77
2022/06/12 02:18:29;;;;;;;2.13;1.42;;;11.40;99.90;;;;;;5106331;28;20474;-77
2022/06/12 02:21:10;;;;;;;7.88;1.90;;;11.40;99.90;;;;;;5106563;28;20027;-77
2022/06/12 02:23:48;;;;;;;1.75;1.40;;;11.30;99.90;;;;;;5106643;28;20104;-77
2022/06/12 02:26:18;;;;;;;1.60;1.48;;;11.30;99.90;;;;;;5107258;28;20118;-77
2022/06/12 02:29:00;;;;;;;1.70;1.60;;;11.30;99.90;;;;;;5107916;28;20036;-77
2022/06/12 02:31:38;;;;;;;2.40;1.50;;;11.20;99.90;;;;;;5107851;28;20030;-77
2022/06/12 02:34:09;;;;;;;1.73;1.42;;;11.20;99.90;;;;;;5109748;28;20035;-76
2022/06/12 02:36:41;;;;;;;2.00;1.65;;;11.30;99.90;;;;;;5110348;28;20032;-77
2022/06/12 02:39:11;;;;;;;1.95;1.50;;;11.30;99.90;;;;;;5108945;28;20027;-77
2022/06/12 02:42:07;;;;;;;1.77;1.60;;;11.20;99.90;;;;;;5110380;28;20024;-77
2022/06/12 02:44:38;;;;;;;2.20;1.83;;;11.10;99.90;;;;;;5102673;28;20027;-77
2022/06/12 02:47:12;;;;;;;3.42;2.13;;;11.10;99.90;;;;;;5107427;28;20092;-76
2022/06/12 02:49:39;;;;;;;4.22;1.58;;;11.20;99.90;;;;;;5109011;28;20032;-76
2022/06/12 02:52:30;;;;;;;1.75;1.65;;;11.20;99.90;;;;;;5107561;28;20513;-77
2022/06/12 02:55:05;;;;;;;2.55;1.58;;;11.20;99.90;;;;;;5108093;28;20032;-77
2022/06/12 02:57:48;;;;;;;5.10;1.80;;;11.10;99.90;;;;;;5109785;28;20577;-77
2022/06/12 03:00:21;;;;;;;3.78;1.70;;;11.10;99.90;;;;;;5114738;28;20453;-76
2022/06/12 03:03:09;;;;;;;2.33;1.80;;;11.10;99.90;;;;;;5118166;28;20036;-77
2022/06/12 03:05:39;;;;;;;2.33;1.65;;;11.10;99.90;;;;;;5080460;28;20040;-77
2022/06/12 03:08:19;;;;;;;4.53;1.70;;;11.10;99.90;;;;;;5116973;28;20038;-77
2022/06/12 03:10:59;;;;;;;2.75;1.50;;;11.10;99.90;;;;;;5116782;28;20083;-76
2022/06/12 03:13:28;;;;;;;4.93;1.67;;;11.20;99.90;;;;;;5115972;28;20095;-77
2022/06/12 03:16:01;;;;;;;4.32;2.00;;;11.20;99.90;;;;;;5113908;28;20043;-77
2022/06/12 03:18:33;;;;;;;3.20;1.27;;;11.20;99.90;;;;;;5117766;27;20055;-76
2022/06/12 03:21:26;;;;;;;3.67;1.83;;;11.00;99.90;;;;;;5116293;28;20038;-77
2022/06/12 03:24:10;;;;;;;2.25;1.70;;;11.10;99.90;;;;;;5117357;28;20050;-77
2022/06/12 03:27:03;;;;;;;2.25;2.03;;;11.00;99.90;;;;;;5117054;28;20110;-77
2022/06/12 03:30:06;;;;;;;4.00;2.20;;;11.00;99.90;;;;;;5116414;28;20084;-77
2022/06/12 03:32:51;;;;;;;3.05;1.95;;;10.80;99.90;;;;;;5114382;28;20063;-77
2022/06/12 03:35:40;;;;;;;2.58;1.50;;;10.80;99.90;;;;;;5110561;28;20043;-77
2022/06/12 03:38:15;;;;;;;1.80;1.70;;;10.70;99.90;;;;;;5112440;28;20024;-77
2022/06/12 03:41:09;;;;;;;2.00;1.90;;;10.80;99.90;;;;;;5112314;28;20448;-78
2022/06/12 03:43:53;;;;;;;1.88;1.67;;;10.80;99.90;;;;;;5112040;27;20020;-77
2022/06/12 03:46:42;;;;;;;2.70;2.33;;;10.80;99.90;;;;;;5110069;28;20024;-78
2022/06/12 03:49:25;;;;;;;2.17;1.58;;;10.80;99.90;;;;;;5072659;28;20044;-77
2022/06/12 03:51:57;;;;;;;1.52;1.42;;;10.90;99.90;;;;;;5110364;28;20365;-77
2022/06/12 03:54:47;;;;;;;2.05;1.50;;;10.90;99.90;;;;;;5111757;28;20565;-77
2022/06/12 04:00:32;;;;;;;2.13;1.35;;;11.00;99.90;;;;;;5111370;28;20074;-77
2022/06/12 04:03:15;;;;;;;1.42;1.33;;;11.00;99.90;;;;;;5110890;28;20055;-77
2022/06/12 04:05:45;;;;;;;2.80;2.30;;;11.10;99.90;;;;;;5090279;28;20086;-77
2022/06/12 04:08:19;;;;;;;1.75;1.65;;;11.10;99.90;;;;;;5098657;28;20040;-77
2022/06/12 04:10:47;;;;;;;1.90;1.75;;;11.10;99.90;;;;;;5102745;28;20079;-79
2022/06/12 04:13:15;;;;;;;2.38;1.70;;;11.20;99.90;;;;;;5101602;28;20162;-77
2022/06/12 04:16:24;;;;;;;3.30;1.30;;;11.30;99.90;;;;;;5102377;28;20028;-78
2022/06/12 04:18:50;;;;;;;3.08;1.95;;;11.40;99.90;;;;;;5074761;28;20032;-77
2022/06/12 04:22:03;;;;;;;3.90;1.55;;;11.50;99.90;;;;;;5099621;28;20059;-77
2022/06/12 04:24:46;;;;;;;2.80;1.45;;;11.60;99.90;;;;;;5078033;28;20043;-77
2022/06/12 04:27:24;;;;;;;1.52;1.38;;;11.70;99.90;;;;;;5098415;28;20032;-79
2022/06/12 04:30:23;;;;;;;4.60;1.80;;;11.70;99.90;;;;;;5097046;28;20035;-77
2022/06/12 04:32:49;;;;;;;1.55;1.45;;;11.70;99.90;;;;;;5100675;28;20347;-77
2022/06/12 04:35:16;;;;;;;3.00;2.60;;;11.70;99.90;;;;;;5094828;28;20056;-77
2022/06/12 04:37:42;;;;;;;2.55;2.35;;;11.80;99.90;;;;;;5090445;28;20027;-77
2022/06/12 04:40:22;;;;;;;1.60;1.50;;;12.10;99.90;;;;;;5090285;28;20379;-77
2022/06/12 04:42:48;;;;;;;1.60;1.50;;;12.40;99.90;;;;;;5090101;28;20028;-77
2022/06/12 04:45:14;;;;;;;2.58;2.15;;;11.60;99.90;;;;;;5089469;28;20042;-78
2022/06/12 04:47:40;;;;;;;2.30;1.38;;;13.40;99.90;;;;;;5090303;28;20051;-78
2022/06/12 04:50:08;;;;;;;2.65;1.30;;;13.40;99.90;;;;;;5088355;28;20050;-77
2022/06/12 04:52:34;;;;;;;5.75;2.08;;;13.40;99.90;;;;;;5089343;28;20024;-78
2022/06/12 04:55:00;;;;;;;3.42;1.42;;;13.80;99.90;;;;;;5088215;28;20035;-79
2022/06/12 04:57:26;;;;;;;1.30;1.10;;;14.30;99.90;;;;;;5088546;28;20431;-79
2022/06/12 04:59:52;;;;;;;1.38;1.17;;;;;;;;;;5087642;28;20027;-79
2022/06/12 05:02:18;;;;;;;2.17;1.40;;;14.70;99.90;;;;;;5088094;28;20579;-79
2022/06/12 05:04:43;;;;;;;1.20;1.15;;;14.40;99.90;;;;;;5098635;28;20498;-80
2022/06/12 05:07:13;;;;;;;1.70;1.23;;;14.30;99.90;;;;;;5108231;28;20070;-81
2022/06/12 05:09:39;;;;;;;2.55;1.30;;;14.10;99.90;;;;;;5107422;28;20027;-82
2022/06/12 05:12:06;;;;;;;1.85;1.35;;;14.10;99.90;;;;;;5107181;28;20055;-79
2022/06/12 05:14:31;;;;;;;1.88;1.63;;;14.20;99.90;;;;;;5107870;28;20145;-77
2022/06/12 05:17:06;;;;;;;1.52;1.42;;;14.10;99.90;;;;;;5109859;28;20119;-82
2022/06/12 05:19:36;;;;;;;4.22;1.48;;;14.30;99.90;;;;;;5109007;28;20024;-77
2022/06/12 05:22:03;;;;;;;1.60;1.30;;;14.50;99.90;;;;;;5109858;28;20237;-77
2022/06/12 05:24:30;;;;;;;6.47;1.63;;;14.60;99.90;;;;;;5109576;28;20058;-77
2022/06/12 05:26:57;;;;;;;1.30;1.20;;;14.60;99.90;;;;;;5109281;28;20297;-77
2022/06/12 05:29:26;;;;;;;1.67;1.45;;;14.80;99.90;;;;;;5110758;28;20131;-76
2022/06/12 05:31:53;;;;;;;1.10;1.10;;;15.00;99.90;;;;;;5110533;28;20012;-76
2022/06/12 05:34:19;;;;;;;2.25;1.65;;;15.00;99.90;;;;;;5111105;28;20061;-76
2022/06/12 05:36:45;;;;;;;3.00;1.40;;;15.10;99.90;;;;;;5111076;28;20476;-77
2022/06/12 05:39:12;;;;;;;1.95;1.50;;;15.30;99.90;;;;;;5109125;28;20019;-77
2022/06/12 05:41:37;;;;;;;1.27;1.15;;;15.40;99.90;;;;;;5109802;28;20502;-76
2022/06/12 05:44:04;;;;;;;1.67;1.58;;;15.60;99.90;;;;;;5113966;28;20019;-77
2022/06/12 05:46:29;;;;;;;1.23;1.20;;;15.80;99.90;;;;;;5111165;27;20034;-76
2022/06/12 05:49:01;;;;;;;1.27;1.17;;;15.90;99.90;;;;;;5112773;28;20091;-78
2022/06/12 05:51:27;;;;;;;1.85;1.15;;;16.10;99.90;;;;;;5111534;28;20066;-77
2022/06/12 05:53:52;;;;;;;2.63;1.20;;;16.20;99.90;;;;;;5110668;28;20055;-77
2022/06/12 05:56:21;;;;;;;1.25;1.15;;;16.30;99.90;;;;;;5109430;28;20258;-77
2022/06/12 05:58:47;;;;;;;3.85;1.40;;;16.40;99.90;;;;;;5107683;28;20126;-78
2022/06/12 06:01:15;;;;;;;1.77;1.40;;;16.50;99.90;;;;;;5109562;28;20103;-77
2022/06/12 06:03:41;;;;;;;1.55;1.40;;;16.70;99.90;;;;;;5107753;28;20375;-75
2022/06/12 06:06:09;;;;;;;2.50;1.08;;;17.00;99.90;;;;;;5107609;28;20038;-74
2022/06/12 06:08:35;;;;;;;1.65;1.20;;;17.40;99.90;;;;;;5109396;28;20035;-74
2022/06/12 06:11:01;;;;;;;2.92;1.33;;;17.60;99.90;;;;;;5108381;28;20109;-75
2022/06/12 06:13:27;;;;;;;2.78;1.50;;;17.60;99.90;;;;;;5109150;28;20480;-75
2022/06/12 06:15:53;;;;;;;2.45;1.23;;;17.70;99.90;;;;;;5110757;28;20566;-75
2022/06/12 06:18:19;;;;;;;1.40;1.10;;;17.80;99.90;;;;;;5108860;28;20023;-75
2022/06/12 06:20:45;;;;;;;1.63;1.38;;;18.10;99.90;;;;;;5109645;28;20076;-77
2022/06/12 06:23:11;;;;;;;1.05;1.00;;;18.10;99.90;;;;;;5108876;28;20118;-77
2022/06/12 06:25:39;;;;;;;1.48;1.35;;;18.20;99.90;;;;;;5110225;28;20069;-74
2022/06/12 06:28:06;;;;;;;1.23;1.10;;;18.20;99.90;;;;;;5108829;28;20040;-75
2022/06/12 06:30:32;;;;;;;3.08;1.63;;;18.10;99.90;;;;;;5108968;28;20594;-75
2022/06/12 06:32:59;;;;;;;1.38;1.05;;;18.20;99.90;;;;;;5109945;28;20106;-77
2022/06/12 06:35:25;;;;;;;1.13;1.02;;;18.50;99.90;;;;;;5109788;28;20063;-77
2022/06/12 06:37:51;;;;;;;1.42;1.00;;;18.80;99.90;;;;;;5110001;28;20023;-75
2022/06/12 06:40:18;;;;;;;1.48;1.33;;;19.00;99.90;;;;;;5108730;28;20031;-77
2022/06/12 06:42:44;;;;;;;2.58;1.00;;;19.80;99.90;;;;;;5109948;28;20055;-77
2022/06/12 06:48:00;;;;;;;3.60;1.00;;;22.30;99.90;;;;;;5110004;28;20080;-75
2022/06/12 06:50:27;;;;;;;0.98;0.90;;;23.10;99.90;;;;;;5109306;28;20428;-77
2022/06/12 06:52:52;;;;;;;1.88;0.88;;;23.20;90.40;;;;;;5109213;28;20024;-76
2022/06/12 06:55:19;;;;;;;1.42;0.88;;;23.90;79.50;;;;;;5109711;28;20038;-75
2022/06/12 06:57:47;;;;;;;2.35;0.90;;;24.10;76.10;;;;;;5109395;28;20141;-75
2022/06/12 07:00:21;;;;;;;1.80;1.30;;;24.70;69.40;;;;;;5109607;28;20507;-75
2022/06/12 07:02:47;;;;;;;1.38;0.77;;;24.70;69.00;;;;;;5108417;28;20093;-75
2022/06/12 07:05:13;;;;;;;1.40;1.05;;;24.80;66.70;;;;;;5108207;28;20051;-75
2022/06/12 07:07:39;;;;;;;2.83;1.08;;;25.00;68.80;;;;;;5109509;28;20122;-75
2022/06/12 07:10:07;;;;;;;2.83;1.20;;;26.20;64.50;;;;;;5108182;28;20196;-76
2022/06/12 07:12:33;;;;;;;0.70;0.70;;;26.60;60.10;;;;;;5109685;28;20290;-75
2022/06/12 07:14:59;;;;;;;1.27;0.90;;;26.70;61.50;;;;;;5109593;28;20032;-76
2022/06/12 07:17:24;;;;;;;1.10;0.95;;;27.40;59.70;;;;;;5108991;28;20034;-75
2022/06/12 07:19:50;;;;;;;0.93;0.90;;;27.50;57.80;;;;;;5109070;28;20031;-75
2022/06/12 07:22:16;;;;;;;2.58;0.90;;;27.70;58.30;;;;;;5107652;28;20051;-75
2022/06/12 07:24:42;;;;;;;2.65;0.90;;;27.30;58.00;;;;;;5109260;28;20031;-75
2022/06/12 07:27:08;;;;;;;0.90;0.90;;;27.00;59.80;;;;;;5107839;28;20031;-75
2022/06/12 07:29:34;;;;;;;1.80;0.77;;;;;;;;;;5109302;28;20034;-76
2022/06/12 07:32:00;;;;;;;0.80;0.80;;;27.30;60.10;;;;;;5109170;28;20027;-76
2022/06/12 07:34:26;;;;;;;1.20;0.90;;;27.10;59.20;;;;;;5108870;28;20054;-75
2022/06/12 07:36:53;;;;;;;1.40;0.90;;;27.20;59.20;;;;;;5109085;28;20027;-75
2022/06/12 07:39:26;;;;;;;0.93;0.93;;;27.60;58.50;;;;;;5109404;28;20460;-76
2022/06/12 07:41:53;;;;;;;5.03;1.00;;;26.80;59.70;;;;;;5108027;28;20138;-75
2022/06/12 07:44:21;;;;;;;1.63;0.77;;;26.30;61.00;;;;;;5109390;28;20410;-76
2022/06/12 07:46:49;;;;;;;1.13;0.98;;;26.40;61.80;;;;;;5109133;28;20465;-76
2022/06/12 07:49:16;;;;;;;2.85;0.93;;;26.70;62.20;;;;;;5108635;28;20368;-75
2022/06/12 07:51:41;;;;;;;2.78;0.88;;;27.00;59.70;;;;;;5107710;28;20073;-75
2022/06/12 07:54:07;;;;;;;2.25;0.90;;;;;;;;;;5109111;28;20433;-75
2022/06/12 07:56:33;;;;;;;1.15;0.77;;;27.00;58.10;;;;;;5107785;28;20066;-77
2022/06/12 07:58:59;;;;;;;1.10;0.90;;;27.60;58.90;;;;;;5109127;28;20020;-76
2022/06/12 08:01:27;;;;;;;0.70;0.70;;;28.10;56.90;;;;;;5109155;28;20016;-77
2022/06/12 08:03:53;;;;;;;3.58;0.90;;;28.50;56.20;;;;;;5110490;28;20110;-76
2022/06/12 08:06:20;;;;;;;0.77;0.77;;;27.80;57.50;;;;;;5111313;28;20066;-76
2022/06/12 08:08:46;;;;;;;0.90;0.90;;;27.90;57.50;;;;;;5111181;28;20038;-76
2022/06/12 08:11:13;;;;;;;1.08;0.80;;;27.50;55.80;;;;;;5112723;28;20023;-75
2022/06/12 08:13:38;;;;;;;1.55;0.80;;;27.40;58.10;;;;;;5111431;28;20539;-75
2022/06/12 08:16:05;;;;;;;1.30;1.20;;;27.80;56.90;;;;;;5112662;28;20106;-75
2022/06/12 08:18:31;;;;;;;2.13;0.88;;;26.80;57.90;;;;;;5112522;28;20081;-75
2022/06/12 08:21:00;;;;;;;1.08;1.00;;;26.70;60.40;;;;;;5111101;28;20062;-78
2022/06/12 08:23:33;;;;;;;0.90;0.90;;;26.40;59.00;;;;;;5112792;28;20035;-76
2022/06/12 08:26:06;;;;;;;1.67;1.55;;;25.50;59.10;;;;;;5111166;28;20034;-78
2022/06/12 08:28:38;;;;;;;1.30;1.10;;;25.50;59.90;;;;;;5110912;28;20080;-78
2022/06/12 08:31:06;;;;;;;1.10;1.00;;;25.90;60.50;;;;;;5111060;28;20019;-78
2022/06/12 08:33:33;;;;;;;0.80;0.80;;;26.00;60.20;;;;;;5112353;28;20023;-75
2022/06/12 08:35:59;;;;;;;1.88;0.90;;;26.70;59.30;;;;;;5111866;28;20040;-76
2022/06/12 08:38:25;;;;;;;1.17;1.08;;;27.50;57.50;;;;;;5111090;28;20507;-76
2022/06/12 08:41:04;;;;;;;1.30;1.17;;;27.70;56.90;;;;;;5112381;28;20023;-78
2022/06/12 08:43:53;;;;;;;0.75;0.75;;;27.80;56.00;;;;;;5110818;28;20027;-77
2022/06/12 08:46:43;;;;;;;1.02;0.90;;;27.00;57.60;;;;;;5112047;28;20202;-78
2022/06/12 08:49:44;;;;;;;0.73;0.73;;;27.00;56.50;;;;;;5111639;28;20050;-78
2022/06/12 08:52:21;;;;;;;1.73;0.93;;;27.50;57.30;;;;;;5107886;28;20115;-78
2022/06/12 08:55:10;;;;;;;1.38;1.27;;;27.30;58.30;;;;;;5091836;28;20085;-77
2022/06/12 08:58:04;;;;;;;0.70;0.70;;;27.10;58.10;;;;;;5061002;28;20043;-77
2022/06/12 09:00:34;;;;;;;2.25;0.93;;;26.60;59.40;;;;;;5085420;28;20024;-77
2022/06/12 09:03:00;;;;;;;5.13;3.55;;;27.00;59.30;;;;;;5091131;28;20486;-78
2022/06/12 09:05:40;;;;;;;3.35;1.25;;;27.30;57.60;;;;;;5091270;28;20024;-78
2022/06/12 09:08:26;;;;;;;1.88;0.88;;;27.10;58.70;;;;;;5091193;28;20036;-77
2022/06/12 09:11:15;;;;;;;1.15;0.93;;;27.60;56.80;;;;;;5091371;28;20021;-79
2022/06/12 09:13:53;;;;;;;0.93;0.80;;;27.70;57.40;;;;;;5082600;28;20056;-78
2022/06/12 09:16:19;;;;;;;1.10;0.77;;;28.00;57.00;;;;;;5091290;28;20032;-78
2022/06/12 09:18:47;;;;;;;0.80;0.80;;;28.20;57.00;;;;;;5091209;28;20024;-76
2022/06/12 09:21:36;;;;;;;1.17;0.93;;;28.60;58.30;;;;;;5090885;28;20078;-75
2022/06/12 09:24:20;;;;;;;2.05;0.90;;;28.70;55.40;;;;;;5082657;28;20469;-75
2022/06/12 09:26:58;;;;;;;1.48;0.80;;;28.50;54.70;;;;;;5089672;28;20119;-78
2022/06/12 09:29:58;;;;;;;0.98;0.70;;;28.20;55.70;;;;;;5091001;28;20031;-78
2022/06/12 09:35:48;;;;;;;2.38;0.75;;;28.60;55.50;;;;;;5016882;23;20120;-79
2022/06/12 09:38:37;;;;;;;0.85;0.85;;;29.30;52.70;;;;;;5014358;28;20028;-79
2022/06/12 09:41:45;;;;;;;1.63;0.80;;;29.10;53.60;;;;;;5013500;28;20112;-79
2022/06/12 09:44:39;;;;;;;1.63;0.80;;;28.50;52.50;;;;;;5013333;28;20056;-79
2022/06/12 09:47:11;;;;;;;1.63;1.30;;;28.60;52.60;;;;;;5013069;28;20037;-79
2022/06/12 09:50:02;;;;;;;2.67;0.90;;;;;;;;;;5014474;28;20084;-79
2022/06/12 09:52:50;;;;;;;2.25;1.55;;;28.00;55.30;;;;;;5013249;28;20397;-80
2022/06/12 09:55:26;;;;;;;0.70;0.70;;;28.00;56.00;;;;;;5020773;28;20072;-78
2022/06/12 09:58:16;;;;;;;1.30;1.00;;;27.90;54.70;;;;;;5023071;28;20331;-78
2022/06/12 10:00:49;;;;;;;2.22;0.90;;;28.30;55.70;;;;;;5023465;28;20297;-78
2022/06/12 10:03:33;;;;;;;0.70;0.70;;;28.60;57.00;;;;;;5024394;28;20309;-77
2022/06/12 10:06:21;;;;;;;0.65;0.63;;;28.70;56.30;;;;;;5012956;28;20029;-77
2022/06/12 10:08:58;;;;;;;0.75;0.75;;;28.90;57.70;;;;;;5014058;28;20121;-77
2022/06/12 10:12:05;;;;;;;1.00;0.80;;;29.40;53.50;;;;;;5014347;28;20026;-77
2022/06/12 10:14:33;;;;;;;0.80;0.77;;;28.90;54.70;;;;;;5010138;28;20037;-77
2022/06/12 10:17:05;;;;;;;1.15;0.70;;;28.60;54.20;;;;;;5018103;28;20076;-77
2022/06/12 10:19:30;;;;;;;0.60;0.60;;;28.10;52.90;;;;;;5012860;28;20121;-77
2022/06/12 10:22:00;;;;;;;0.50;0.50;;;28.70;53.30;;;;;;5017198;28;20053;-77
2022/06/12 10:24:26;;;;;;;2.17;0.75;;;28.80;51.90;;;;;;5021074;28;20022;-77
2022/06/12 10:26:59;;;;;;;1.65;0.75;;;29.10;54.70;;;;;;5019565;28;20148;-77
2022/06/12 10:29:26;;;;;;;0.85;0.60;;;29.90;53.40;;;;;;5019992;28;20032;-77
2022/06/12 10:31:57;;;;;;;1.20;0.80;;;30.00;52.50;;;;;;5012635;28;20026;-77
2022/06/12 10:34:28;;;;;;;1.77;0.70;;;30.10;53.50;;;;;;5018510;28;20042;-77
2022/06/12 10:36:55;;;;;;;1.55;0.80;;;30.50;51.70;;;;;;5023878;28;20013;-77
2022/06/12 10:39:24;;;;;;;1.27;0.70;;;30.30;50.60;;;;;;5021791;28;20201;-77
2022/06/12 10:41:53;;;;;;;;;;;30.90;49.50;;;;;;5023392;28;20025;-76
2022/06/12 10:44:33;;;;;;;;;;;31.10;49.70;;;;;;5022736;28;19960;-76
2022/06/12 10:47:17;;;;;;;;;;;30.60;49.10;;;;;;5019043;28;20024;-77
2022/06/12 10:49:43;;;;;;;;;;;30.20;50.30;;;;;;5015231;28;19906;-77
2022/06/12 10:52:27;;;;;;;;;;;29.80;50.90;;;;;;5012794;28;19905;-77
2022/06/12 10:54:53;;;;;;;;;;;29.80;50.50;;;;;;5012722;28;19905;-78
2022/06/12 10:57:30;;;;;;;;;;;29.90;50.10;;;;;;5013888;28;19995;-76
2022/06/12 11:00:02;;;;;;;;;;;30.20;49.80;;;;;;5013764;28;19928;-76
2022/06/12 11:02:28;;;;;;;;;;;31.10;47.80;;;;;;5013803;28;19911;-76
2022/06/12 11:04:56;;;;;;;;;;;30.70;47.30;;;;;;5013838;28;19992;-76
2022/06/12 11:07:22;;;;;;;;;;;31.10;47.90;;;;;;5014090;28;19940;-77
2022/06/12 11:10:06;;;;;;;;;;;30.30;47.70;;;;;;5013808;28;19909;-78
2022/06/12 11:12:38;;;;;;;;;;;30.70;47.30;;;;;;5012619;28;19933;-78
2022/06/12 11:15:07;;;;;;;;;;;31.50;46.10;;;;;;5012315;28;19906;-78
2022/06/12 11:17:42;;;;;;;;;;;31.90;45.40;;;;;;5012325;28;20392;-78
2022/06/12 11:20:24;;;;;;;;;;;32.10;44.80;;;;;;5012251;28;19951;-77
2022/06/12 11:22:55;;;;;;;;;;;31.30;46.10;;;;;;5012361;28;19992;-77
2022/06/12 11:25:24;;;;;;;;;;;31.30;45.20;;;;;;5013746;28;19906;-77
2022/06/12 11:28:05;;;;;;;;;;;31.50;44.70;;;;;;5012384;28;20016;-77
2022/06/12 11:30:33;;;;;;;;;;;31.50;44.80;;;;;;5013580;28;19924;-77
2022/06/12 11:32:58;;;;;;;;;;;32.30;43.90;;;;;;5012079;28;19905;-77
2022/06/12 11:35:27;;;;;;;;;;;33.00;42.30;;;;;;5012277;28;19968;-76
2022/06/12 11:38:00;;;;;;;;;;;32.60;42.50;;;;;;5014974;28;19906;-76
2022/06/12 11:40:37;;;;;;;;;;;32.00;44.20;;;;;;5017482;28;19905;-76
2022/06/12 11:43:12;;;;;;;;;;;32.20;43.50;;;;;;5016198;28;20357;-76
2022/06/12 11:45:38;;;;;;;;;;;33.00;42.90;;;;;;5013219;28;20395;-77
2022/06/12 11:48:08;;;;;;;;;;;33.00;43.30;;;;;;5017300;28;19957;-76
2022/06/12 11:50:44;;;;;;;;;;;32.10;42.20;;;;;;5016099;28;19941;-76
2022/06/12 11:53:24;;;;;;;;;;;32.40;44.50;;;;;;5017286;28;19945;-76
2022/06/12 11:55:50;;;;;;;;;;;32.40;42.50;;;;;;5015773;28;19905;-77
2022/06/12 11:58:18;;;;;;;;;;;32.50;42.20;;;;;;5017103;28;20004;-76
2022/06/12 12:00:44;;;;;;;;;;;32.90;42.30;;;;;;5015877;28;19935;-76
2022/06/12 12:03:18;;;;;;;;;;;32.70;41.60;;;;;;5015739;28;20368;-77
2022/06/12 12:05:50;;;;;;;;;;;32.00;41.40;;;;;;5017117;28;19905;-76
2022/06/12 12:08:33;;;;;;;;;;;32.80;40.20;;;;;;5016951;28;19913;-76
2022/06/12 12:11:02;;;;;;;;;;;33.00;41.40;;;;;;5016712;28;19952;-75
2022/06/12 12:13:32;;;;;;;;;;;34.00;39.70;;;;;;5015517;28;20264;-77
2022/06/12 12:16:13;;;;;;;;;;;34.10;40.00;;;;;;5016229;28;20337;-76
2022/06/12 12:18:44;;;;;;;;;;;33.80;41.30;;;;;;5015507;28;19913;-77
2022/06/12 12:21:15;;;;;;;;;;;33.60;42.20;;;;;;5016623;28;19905;-76
2022/06/12 12:23:43;;;;;;;;;;;33.10;42.90;;;;;;5016703;28;20327;-76
2022/06/12 12:26:23;;;;;;;;;;;32.50;42.10;;;;;;5015388;28;19905;-76
2022/06/12 12:28:51;;;;;;;;;;;31.90;41.80;;;;;;5015206;28;19921;-76
2022/06/12 12:31:17;;;;;;;;;;;31.30;43.20;;;;;;5016420;28;20327;-77
2022/06/12 12:33:44;;;;;;;;;;;32.10;42.30;;;;;;5014870;28;20062;-76
2022/06/12 12:41:45;;;;;;;;;;;33.00;40.80;;;;;;5016876;28;19912;-77
2022/06/12 12:44:13;;;;;;;;;;;32.20;41.30;;;;;;5016349;28;19905;-77
2022/06/12 12:46:51;;;;;;;;;;;33.10;41.00;;;;;;5016249;28;20000;-76
2022/06/12 12:49:23;;;;;;;;;;;32.60;41.10;;;;;;5013564;28;20357;-76
2022/06/12 12:51:49;;;;;;;;;;;33.00;40.10;;;;;;5015967;28;19963;-76
2022/06/12 12:54:16;;;;;;;;;;;33.00;40.10;;;;;;5016079;28;19909;-76
2022/06/12 12:56:53;;;;;;;;;;;33.70;39.70;;;;;;5014725;28;19929;-77
2022/06/12 12:59:20;;;;;;;;;;;33.60;39.80;;;;;;5015993;28;19920;-76
2022/06/12 13:01:47;;;;;;;;;;;33.10;38.90;;;;;;5015949;28;20269;-76
2022/06/12 13:04:18;;;;;;;;;;;33.70;39.50;;;;;;5015823;28;20004;-77
2022/06/12 13:07:03;;;;;;;;;;;34.20;39.20;;;;;;5014467;28;19905;-76
2022/06/12 13:09:54;;;;;;;;;;;34.00;38.30;;;;;;5015716;28;19913;-76
2022/06/12 13:12:22;;;;;;;;;;;34.10;39.00;;;;;;5007508;28;19917;-76
2022/06/12 13:15:07;;;;;;;;;;;33.90;37.70;;;;;;5015690;28;19910;-76
2022/06/12 13:17:42;;;;;;;;;;;34.10;39.60;;;;;;5015893;28;19906;-75
2022/06/12 13:20:15;;;;;;;;;;;33.70;41.10;;;;;;5015713;28;19935;-77
2022/06/12 13:22:52;;;;;;;;;;;33.70;38.80;;;;;;5014279;28;19905;-76
2022/06/12 13:25:43;;;;;;;;;;;33.30;40.00;;;;;;5014109;28;19912;-75
2022/06/12 13:28:20;;;;;;;;;;;31.70;40.10;;;;;;5014048;28;19913;-76
2022/06/12 13:30:46;;;;;;;;;;;32.60;41.20;;;;;;5014186;28;20353;-76
2022/06/12 13:33:20;;;;;;;;;;;33.00;40.20;;;;;;5015347;28;19931;-76
2022/06/12 13:35:48;;;;;;;;;;;32.90;39.70;;;;;;5015359;28;20305;-75
2022/06/12 13:38:28;;;;;;;;;;;33.40;39.70;;;;;;5015587;28;19911;-76
2022/06/12 13:41:26;;;;;;;;;;;32.90;38.90;;;;;;5015133;28;20365;-76
2022/06/12 13:43:52;;;;;;;;;;;33.20;40.30;;;;;;4991985;28;20007;-76
2022/06/12 13:46:28;;;;;;;;;;;33.10;40.10;;;;;;5015124;28;19913;-75
2022/06/12 13:48:55;;;;;;;;;;;32.90;39.20;;;;;;5014996;28;19913;-76
2022/06/12 13:51:40;;;;;;;;;;;33.00;39.90;;;;;;5013942;28;19905;-76
2022/06/12 13:54:19;;;;;;;;;;;33.20;41.10;;;;;;5013841;28;19956;-76
2022/06/12 13:56:50;;;;;;;;;;;32.60;37.70;;;;;;5013728;28;19909;-75
2022/06/12 13:59:17;;;;;;;;;;;33.00;40.20;;;;;;5013470;28;20273;-75
2022/06/12 14:01:43;;;;;;;;;;;33.30;38.90;;;;;;5012988;28;19945;-75